sensor_id;sensor_type;location;lat;lon;timestamp;P1;durP1;ratioP1;P2;durP2;ratioP2
68319;SDS011;55168;51.120;17.024;2023-03-02T00:00:00;81.7;;;50.4;;
68319;SDS011;55168;51.120;17.024;2023-03-02T00:01:03;86.8;;;52.3;;
68319;SDS011;55168;51.120;17.024;2023-03-02T00:02:11;86.8;;;52.3;;
68319;SDS011;55168;51.120;17.024;2023-03-02T00:03:01;86.8;;;52.3;;
68319;SDS011;55168;51.120;17.024;2023-03-02T00:04:01;86.8;;;52.3;;
68319;SDS011;55168;51.120;17.024;2023-03-02T00:05:00;86.8;;;52.3;;
68319;SDS011;55168;51.120;17.024;2023-03-02T00:06:00;85.7;;;51.7;;
68319;SDS011;55168;51.120;17.024;2023-03-02T00:07:04;85.7;;;51.7;;
68319;SDS011;55168;51.120;17.024;2023-03-02T00:08:01;85.7;;;51.7;;
68319;SDS011;55168;51.120;17.024;2023-03-02T00:09:00;85.7;;;51.7;;
68319;SDS011;55168;51.120;17.024;2023-03-02T00:10:00;85.7;;;51.7;;
68319;SDS011;55168;51.120;17.024;2023-03-02T00:11:01;81.0;;;50.9;;
68319;SDS011;55168;51.120;17.024;2023-03-02T00:12:00;81.0;;;50.9;;
68319;SDS011;55168;51.120;17.024;2023-03-02T00:13:00;81.0;;;50.9;;
68319;SDS011;55168;51.120;17.024;2023-03-02T00:14:00;81.0;;;50.9;;
68319;SDS011;55168;51.120;17.024;2023-03-02T00:15:00;81.0;;;50.9;;
68319;SDS011;55168;51.120;17.024;2023-03-02T00:16:00;80.8;;;52.4;;
68319;SDS011;55168;51.120;17.024;2023-03-02T00:17:00;80.8;;;52.4;;
68319;SDS011;55168;51.120;17.024;2023-03-02T00:18:00;80.8;;;52.4;;
68319;SDS011;55168;51.120;17.024;2023-03-02T00:19:00;80.8;;;52.4;;
68319;SDS011;55168;51.120;17.024;2023-03-02T00:20:00;80.8;;;52.4;;
68319;SDS011;55168;51.120;17.024;2023-03-02T00:21:00;84.8;;;52.2;;
68319;SDS011;55168;51.120;17.024;2023-03-02T00:22:00;84.8;;;52.2;;
68319;SDS011;55168;51.120;17.024;2023-03-02T00:23:00;84.8;;;52.2;;
68319;SDS011;55168;51.120;17.024;2023-03-02T00:24:00;84.8;;;52.2;;
68319;SDS011;55168;51.120;17.024;2023-03-02T00:25:00;84.8;;;52.2;;
68319;SDS011;55168;51.120;17.024;2023-03-02T00:26:00;80.4;;;51.8;;
68319;SDS011;55168;51.120;17.024;2023-03-02T00:27:00;80.4;;;51.8;;
68319;SDS011;55168;51.120;17.024;2023-03-02T00:28:00;80.4;;;51.8;;
68319;SDS011;55168;51.120;17.024;2023-03-02T00:29:00;80.4;;;51.8;;
68319;SDS011;55168;51.120;17.024;2023-03-02T00:30:00;80.4;;;51.8;;
68319;SDS011;55168;51.120;17.024;2023-03-02T00:31:03;78.5;;;51.0;;
68319;SDS011;55168;51.120;17.024;2023-03-02T00:32:00;78.5;;;51.0;;
68319;SDS011;55168;51.120;17.024;2023-03-02T00:33:00;78.5;;;51.0;;
68319;SDS011;55168;51.120;17.024;2023-03-02T00:34:00;78.5;;;51.0;;
68319;SDS011;55168;51.120;17.024;2023-03-02T00:35:00;78.5;;;51.0;;
68319;SDS011;55168;51.120;17.024;2023-03-02T00:36:01;80.0;;;50.2;;
68319;SDS011;55168;51.120;17.024;2023-03-02T00:37:00;80.0;;;50.2;;
68319;SDS011;55168;51.120;17.024;2023-03-02T00:38:00;80.0;;;50.2;;
68319;SDS011;55168;51.120;17.024;2023-03-02T00:39:00;80.0;;;50.2;;
68319;SDS011;55168;51.120;17.024;2023-03-02T00:40:00;80.0;;;50.2;;
68319;SDS011;55168;51.120;17.024;2023-03-02T00:41:00;85.5;;;52.6;;
68319;SDS011;55168;51.120;17.024;2023-03-02T00:42:00;85.5;;;52.6;;
68319;SDS011;55168;51.120;17.024;2023-03-02T00:43:00;85.5;;;52.6;;
68319;SDS011;55168;51.120;17.024;2023-03-02T00:44:00;85.5;;;52.6;;
68319;SDS011;55168;51.120;17.024;2023-03-02T00:45:00;85.5;;;52.6;;
68319;SDS011;55168;51.120;17.024;2023-03-02T00:46:10;84.5;;;52.3;;
68319;SDS011;55168;51.120;17.024;2023-03-02T00:47:00;84.5;;;52.3;;
68319;SDS011;55168;51.120;17.024;2023-03-02T00:48:00;84.5;;;52.3;;
68319;SDS011;55168;51.120;17.024;2023-03-02T00:49:00;84.5;;;52.3;;
68319;SDS011;55168;51.120;17.024;2023-03-02T00:50:00;84.5;;;52.3;;
68319;SDS011;55168;51.120;17.024;2023-03-02T00:51:00;79.4;;;49.7;;
68319;SDS011;55168;51.120;17.024;2023-03-02T00:52:00;79.4;;;49.7;;
68319;SDS011;55168;51.120;17.024;2023-03-02T00:53:00;79.4;;;49.7;;
68319;SDS011;55168;51.120;17.024;2023-03-02T00:54:00;79.4;;;49.7;;
68319;SDS011;55168;51.120;17.024;2023-03-02T00:55:00;79.4;;;49.7;;
68319;SDS011;55168;51.120;17.024;2023-03-02T00:56:00;82.1;;;51.7;;
68319;SDS011;55168;51.120;17.024;2023-03-02T00:57:00;82.1;;;51.7;;
68319;SDS011;55168;51.120;17.024;2023-03-02T00:58:00;82.1;;;51.7;;
68319;SDS011;55168;51.120;17.024;2023-03-02T00:59:10;82.1;;;51.7;;
68319;SDS011;55168;51.120;17.024;2023-03-02T01:00:00;82.1;;;51.7;;
68319;SDS011;55168;51.120;17.024;2023-03-02T01:01:10;84.0;;;51.5;;
68319;SDS011;55168;51.120;17.024;2023-03-02T01:02:00;84.0;;;51.5;;
68319;SDS011;55168;51.120;17.024;2023-03-02T01:03:00;84.0;;;51.5;;
68319;SDS011;55168;51.120;17.024;2023-03-02T01:04:00;84.0;;;51.5;;
68319;SDS011;55168;51.120;17.024;2023-03-02T01:05:00;84.0;;;51.5;;
68319;SDS011;55168;51.120;17.024;2023-03-02T01:06:00;79.6;;;48.4;;
68319;SDS011;55168;51.120;17.024;2023-03-02T01:07:04;79.6;;;48.4;;
68319;SDS011;55168;51.120;17.024;2023-03-02T01:08:00;79.6;;;48.4;;
68319;SDS011;55168;51.120;17.024;2023-03-02T01:09:00;79.6;;;48.4;;
68319;SDS011;55168;51.120;17.024;2023-03-02T01:10:00;79.6;;;48.4;;
68319;SDS011;55168;51.120;17.024;2023-03-02T01:11:00;76.7;;;49.3;;
68319;SDS011;55168;51.120;17.024;2023-03-02T01:12:00;76.7;;;49.3;;
68319;SDS011;55168;51.120;17.024;2023-03-02T01:13:00;76.7;;;49.3;;
68319;SDS011;55168;51.120;17.024;2023-03-02T01:14:00;76.7;;;49.3;;
68319;SDS011;55168;51.120;17.024;2023-03-02T01:15:01;76.7;;;49.3;;
68319;SDS011;55168;51.120;17.024;2023-03-02T01:16:01;77.7;;;49.1;;
68319;SDS011;55168;51.120;17.024;2023-03-02T01:17:00;77.7;;;49.1;;
68319;SDS011;55168;51.120;17.024;2023-03-02T01:18:00;77.7;;;49.1;;
68319;SDS011;55168;51.120;17.024;2023-03-02T01:19:00;77.7;;;49.1;;
68319;SDS011;55168;51.120;17.024;2023-03-02T01:20:00;77.7;;;49.1;;
68319;SDS011;55168;51.120;17.024;2023-03-02T01:21:02;78.1;;;48.8;;
68319;SDS011;55168;51.120;17.024;2023-03-02T01:22:00;78.1;;;48.8;;
68319;SDS011;55168;51.120;17.024;2023-03-02T01:23:00;78.1;;;48.8;;
68319;SDS011;55168;51.120;17.024;2023-03-02T01:24:00;78.1;;;48.8;;
68319;SDS011;55168;51.120;17.024;2023-03-02T01:25:00;78.1;;;48.8;;
68319;SDS011;55168;51.120;17.024;2023-03-02T01:26:00;80.7;;;50.1;;
68319;SDS011;55168;51.120;17.024;2023-03-02T01:27:00;80.7;;;50.1;;
68319;SDS011;55168;51.120;17.024;2023-03-02T01:28:00;80.7;;;50.1;;
68319;SDS011;55168;51.120;17.024;2023-03-02T01:29:00;80.7;;;50.1;;
68319;SDS011;55168;51.120;17.024;2023-03-02T01:30:00;80.7;;;50.1;;
68319;SDS011;55168;51.120;17.024;2023-03-02T01:31:00;80.2;;;50.2;;
68319;SDS011;55168;51.120;17.024;2023-03-02T01:32:00;80.2;;;50.2;;
68319;SDS011;55168;51.120;17.024;2023-03-02T01:33:00;80.2;;;50.2;;
68319;SDS011;55168;51.120;17.024;2023-03-02T01:34:00;80.2;;;50.2;;
68319;SDS011;55168;51.120;17.024;2023-03-02T01:35:00;80.2;;;50.2;;
68319;SDS011;55168;51.120;17.024;2023-03-02T01:36:00;80.0;;;48.2;;
68319;SDS011;55168;51.120;17.024;2023-03-02T01:37:00;80.0;;;48.2;;
68319;SDS011;55168;51.120;17.024;2023-03-02T01:38:00;80.0;;;48.2;;
68319;SDS011;55168;51.120;17.024;2023-03-02T01:39:00;80.0;;;48.2;;
68319;SDS011;55168;51.120;17.024;2023-03-02T01:40:00;80.0;;;48.2;;
68319;SDS011;55168;51.120;17.024;2023-03-02T01:41:00;78.9;;;50.2;;
68319;SDS011;55168;51.120;17.024;2023-03-02T01:42:00;78.9;;;50.2;;
68319;SDS011;55168;51.120;17.024;2023-03-02T01:43:01;78.9;;;50.2;;
68319;SDS011;55168;51.120;17.024;2023-03-02T01:44:00;78.9;;;50.2;;
68319;SDS011;55168;51.120;17.024;2023-03-02T01:45:00;78.9;;;50.2;;
68319;SDS011;55168;51.120;17.024;2023-03-02T01:46:02;81.3;;;50.1;;
68319;SDS011;55168;51.120;17.024;2023-03-02T01:47:01;81.3;;;50.1;;
68319;SDS011;55168;51.120;17.024;2023-03-02T01:48:00;81.3;;;50.1;;
68319;SDS011;55168;51.120;17.024;2023-03-02T01:49:04;81.3;;;50.1;;
68319;SDS011;55168;51.120;17.024;2023-03-02T01:51:01;84.5;;;50.1;;
68319;SDS011;55168;51.120;17.024;2023-03-02T01:52:00;84.5;;;50.1;;
68319;SDS011;55168;51.120;17.024;2023-03-02T01:53:00;84.5;;;50.1;;
68319;SDS011;55168;51.120;17.024;2023-03-02T01:54:03;84.5;;;50.1;;
68319;SDS011;55168;51.120;17.024;2023-03-02T01:55:03;84.5;;;50.1;;
68319;SDS011;55168;51.120;17.024;2023-03-02T01:56:01;82.2;;;50.0;;
68319;SDS011;55168;51.120;17.024;2023-03-02T01:57:01;82.2;;;50.0;;
68319;SDS011;55168;51.120;17.024;2023-03-02T01:58:01;82.2;;;50.0;;
68319;SDS011;55168;51.120;17.024;2023-03-02T01:59:05;82.2;;;50.0;;
68319;SDS011;55168;51.120;17.024;2023-03-02T02:00:04;82.2;;;50.0;;
68319;SDS011;55168;51.120;17.024;2023-03-02T02:01:00;91.1;;;54.7;;
68319;SDS011;55168;51.120;17.024;2023-03-02T02:02:02;91.1;;;54.7;;
68319;SDS011;55168;51.120;17.024;2023-03-02T02:03:04;91.1;;;54.7;;
68319;SDS011;55168;51.120;17.024;2023-03-02T02:04:00;91.1;;;54.7;;
68319;SDS011;55168;51.120;17.024;2023-03-02T02:05:02;91.1;;;54.7;;
68319;SDS011;55168;51.120;17.024;2023-03-02T02:06:12;85.8;;;53.1;;
68319;SDS011;55168;51.120;17.024;2023-03-02T02:07:03;85.8;;;53.1;;
68319;SDS011;55168;51.120;17.024;2023-03-02T02:08:00;85.8;;;53.1;;
68319;SDS011;55168;51.120;17.024;2023-03-02T02:09:01;85.8;;;53.1;;
68319;SDS011;55168;51.120;17.024;2023-03-02T02:10:01;85.8;;;53.1;;
68319;SDS011;55168;51.120;17.024;2023-03-02T02:11:00;93.6;;;54.4;;
68319;SDS011;55168;51.120;17.024;2023-03-02T02:12:00;93.6;;;54.4;;
68319;SDS011;55168;51.120;17.024;2023-03-02T02:13:00;93.6;;;54.4;;
68319;SDS011;55168;51.120;17.024;2023-03-02T02:14:01;93.6;;;54.4;;
68319;SDS011;55168;51.120;17.024;2023-03-02T02:15:00;93.6;;;54.4;;
68319;SDS011;55168;51.120;17.024;2023-03-02T02:16:00;91.8;;;54.2;;
68319;SDS011;55168;51.120;17.024;2023-03-02T02:17:00;91.8;;;54.2;;
68319;SDS011;55168;51.120;17.024;2023-03-02T02:18:00;91.8;;;54.2;;
68319;SDS011;55168;51.120;17.024;2023-03-02T02:19:00;91.8;;;54.2;;
68319;SDS011;55168;51.120;17.024;2023-03-02T02:21:00;89.9;;;54.7;;
68319;SDS011;55168;51.120;17.024;2023-03-02T02:22:00;89.9;;;54.7;;
68319;SDS011;55168;51.120;17.024;2023-03-02T02:23:08;89.9;;;54.7;;
68319;SDS011;55168;51.120;17.024;2023-03-02T02:25:03;89.9;;;54.7;;
68319;SDS011;55168;51.120;17.024;2023-03-02T02:26:09;92.5;;;55.5;;
68319;SDS011;55168;51.120;17.024;2023-03-02T02:27:00;92.5;;;55.5;;
68319;SDS011;55168;51.120;17.024;2023-03-02T02:28:02;92.5;;;55.5;;
68319;SDS011;55168;51.120;17.024;2023-03-02T02:29:04;92.5;;;55.5;;
68319;SDS011;55168;51.120;17.024;2023-03-02T02:30:03;92.5;;;55.5;;
68319;SDS011;55168;51.120;17.024;2023-03-02T02:31:06;89.2;;;53.3;;
68319;SDS011;55168;51.120;17.024;2023-03-02T02:32:05;89.2;;;53.3;;
68319;SDS011;55168;51.120;17.024;2023-03-02T02:33:01;89.2;;;53.3;;
68319;SDS011;55168;51.120;17.024;2023-03-02T02:34:10;89.2;;;53.3;;
68319;SDS011;55168;51.120;17.024;2023-03-02T02:35:03;89.2;;;53.3;;
68319;SDS011;55168;51.120;17.024;2023-03-02T02:36:05;111.6;;;65.1;;
68319;SDS011;55168;51.120;17.024;2023-03-02T02:37:10;111.6;;;65.1;;
68319;SDS011;55168;51.120;17.024;2023-03-02T02:38:03;111.6;;;65.1;;
68319;SDS011;55168;51.120;17.024;2023-03-02T02:39:04;111.6;;;65.1;;
68319;SDS011;55168;51.120;17.024;2023-03-02T02:40:02;111.6;;;65.1;;
68319;SDS011;55168;51.120;17.024;2023-03-02T02:41:02;88.8;;;54.7;;
68319;SDS011;55168;51.120;17.024;2023-03-02T02:42:03;88.8;;;54.7;;
68319;SDS011;55168;51.120;17.024;2023-03-02T02:43:00;88.8;;;54.7;;
68319;SDS011;55168;51.120;17.024;2023-03-02T02:44:00;88.8;;;54.7;;
68319;SDS011;55168;51.120;17.024;2023-03-02T02:45:03;88.8;;;54.7;;
68319;SDS011;55168;51.120;17.024;2023-03-02T02:46:00;96.8;;;58.3;;
68319;SDS011;55168;51.120;17.024;2023-03-02T02:47:00;96.8;;;58.3;;
68319;SDS011;55168;51.120;17.024;2023-03-02T02:48:00;96.8;;;58.3;;
68319;SDS011;55168;51.120;17.024;2023-03-02T02:49:01;96.8;;;58.3;;
68319;SDS011;55168;51.120;17.024;2023-03-02T02:50:00;96.8;;;58.3;;
68319;SDS011;55168;51.120;17.024;2023-03-02T02:51:00;90.0;;;54.9;;
68319;SDS011;55168;51.120;17.024;2023-03-02T02:52:01;90.0;;;54.9;;
68319;SDS011;55168;51.120;17.024;2023-03-02T02:53:13;90.0;;;54.9;;
68319;SDS011;55168;51.120;17.024;2023-03-02T02:54:03;90.0;;;54.9;;
68319;SDS011;55168;51.120;17.024;2023-03-02T02:55:00;90.0;;;54.9;;
68319;SDS011;55168;51.120;17.024;2023-03-02T02:56:01;87.5;;;54.0;;
68319;SDS011;55168;51.120;17.024;2023-03-02T02:57:02;87.5;;;54.0;;
68319;SDS011;55168;51.120;17.024;2023-03-02T02:58:02;87.5;;;54.0;;
68319;SDS011;55168;51.120;17.024;2023-03-02T02:59:04;87.5;;;54.0;;
68319;SDS011;55168;51.120;17.024;2023-03-02T03:00:00;87.5;;;54.0;;
68319;SDS011;55168;51.120;17.024;2023-03-02T03:01:00;94.1;;;56.8;;
68319;SDS011;55168;51.120;17.024;2023-03-02T03:02:01;94.1;;;56.8;;
68319;SDS011;55168;51.120;17.024;2023-03-02T03:03:03;94.1;;;56.8;;
68319;SDS011;55168;51.120;17.024;2023-03-02T03:04:02;94.1;;;56.8;;
68319;SDS011;55168;51.120;17.024;2023-03-02T03:05:00;94.1;;;56.8;;
68319;SDS011;55168;51.120;17.024;2023-03-02T03:06:04;93.5;;;55.5;;
68319;SDS011;55168;51.120;17.024;2023-03-02T03:07:05;93.5;;;55.5;;
68319;SDS011;55168;51.120;17.024;2023-03-02T03:08:09;93.5;;;55.5;;
68319;SDS011;55168;51.120;17.024;2023-03-02T03:09:00;93.5;;;55.5;;
68319;SDS011;55168;51.120;17.024;2023-03-02T03:11:00;96.2;;;58.3;;
68319;SDS011;55168;51.120;17.024;2023-03-02T03:12:06;96.2;;;58.3;;
68319;SDS011;55168;51.120;17.024;2023-03-02T03:13:01;96.2;;;58.3;;
68319;SDS011;55168;51.120;17.024;2023-03-02T03:14:06;96.2;;;58.3;;
68319;SDS011;55168;51.120;17.024;2023-03-02T03:15:01;96.2;;;58.3;;
68319;SDS011;55168;51.120;17.024;2023-03-02T03:16:01;105.3;;;63.6;;
68319;SDS011;55168;51.120;17.024;2023-03-02T03:17:00;105.3;;;63.6;;
68319;SDS011;55168;51.120;17.024;2023-03-02T03:18:00;105.3;;;63.6;;
68319;SDS011;55168;51.120;17.024;2023-03-02T03:19:07;105.3;;;63.6;;
68319;SDS011;55168;51.120;17.024;2023-03-02T03:20:00;105.3;;;63.6;;
68319;SDS011;55168;51.120;17.024;2023-03-02T03:21:00;100.8;;;60.6;;
68319;SDS011;55168;51.120;17.024;2023-03-02T03:22:01;100.8;;;60.6;;
68319;SDS011;55168;51.120;17.024;2023-03-02T03:23:00;100.8;;;60.6;;
68319;SDS011;55168;51.120;17.024;2023-03-02T03:24:00;100.8;;;60.6;;
68319;SDS011;55168;51.120;17.024;2023-03-02T03:25:00;104.1;;;61.8;;
68319;SDS011;55168;51.120;17.024;2023-03-02T03:26:00;104.1;;;61.8;;
68319;SDS011;55168;51.120;17.024;2023-03-02T03:27:01;104.1;;;61.8;;
68319;SDS011;55168;51.120;17.024;2023-03-02T03:28:00;104.1;;;61.8;;
68319;SDS011;55168;51.120;17.024;2023-03-02T03:29:01;104.1;;;61.8;;
68319;SDS011;55168;51.120;17.024;2023-03-02T03:30:00;103.9;;;61.5;;
68319;SDS011;55168;51.120;17.024;2023-03-02T03:31:00;103.9;;;61.5;;
68319;SDS011;55168;51.120;17.024;2023-03-02T03:32:01;103.9;;;61.5;;
68319;SDS011;55168;51.120;17.024;2023-03-02T03:33:00;103.9;;;61.5;;
68319;SDS011;55168;51.120;17.024;2023-03-02T03:34:01;103.9;;;61.5;;
68319;SDS011;55168;51.120;17.024;2023-03-02T03:35:00;109.4;;;65.4;;
68319;SDS011;55168;51.120;17.024;2023-03-02T03:36:00;109.4;;;65.4;;
68319;SDS011;55168;51.120;17.024;2023-03-02T03:37:00;109.4;;;65.4;;
68319;SDS011;55168;51.120;17.024;2023-03-02T03:38:00;109.4;;;65.4;;
68319;SDS011;55168;51.120;17.024;2023-03-02T03:39:02;109.4;;;65.4;;
68319;SDS011;55168;51.120;17.024;2023-03-02T03:40:00;109.9;;;67.6;;
68319;SDS011;55168;51.120;17.024;2023-03-02T03:41:00;109.9;;;67.6;;
68319;SDS011;55168;51.120;17.024;2023-03-02T03:42:00;109.9;;;67.6;;
68319;SDS011;55168;51.120;17.024;2023-03-02T03:43:01;109.9;;;67.6;;
68319;SDS011;55168;51.120;17.024;2023-03-02T03:44:00;109.9;;;67.6;;
68319;SDS011;55168;51.120;17.024;2023-03-02T03:45:00;105.4;;;63.4;;
68319;SDS011;55168;51.120;17.024;2023-03-02T03:46:00;105.4;;;63.4;;
68319;SDS011;55168;51.120;17.024;2023-03-02T03:47:00;105.4;;;63.4;;
68319;SDS011;55168;51.120;17.024;2023-03-02T03:48:00;105.4;;;63.4;;
68319;SDS011;55168;51.120;17.024;2023-03-02T03:49:00;105.4;;;63.4;;
68319;SDS011;55168;51.120;17.024;2023-03-02T03:50:00;109.2;;;65.3;;
68319;SDS011;55168;51.120;17.024;2023-03-02T03:51:00;109.2;;;65.3;;
68319;SDS011;55168;51.120;17.024;2023-03-02T03:52:00;109.2;;;65.3;;
68319;SDS011;55168;51.120;17.024;2023-03-02T03:53:00;109.2;;;65.3;;
68319;SDS011;55168;51.120;17.024;2023-03-02T03:54:03;109.2;;;65.3;;
68319;SDS011;55168;51.120;17.024;2023-03-02T03:55:01;112.7;;;69.9;;
68319;SDS011;55168;51.120;17.024;2023-03-02T03:56:00;112.7;;;69.9;;
68319;SDS011;55168;51.120;17.024;2023-03-02T03:57:00;112.7;;;69.9;;
68319;SDS011;55168;51.120;17.024;2023-03-02T03:58:00;112.7;;;69.9;;
68319;SDS011;55168;51.120;17.024;2023-03-02T03:59:01;112.7;;;69.9;;
68319;SDS011;55168;51.120;17.024;2023-03-02T04:00:00;112.7;;;69.6;;
68319;SDS011;55168;51.120;17.024;2023-03-02T04:01:00;112.7;;;69.6;;
68319;SDS011;55168;51.120;17.024;2023-03-02T04:02:00;112.7;;;69.6;;
68319;SDS011;55168;51.120;17.024;2023-03-02T04:03:00;112.7;;;69.6;;
68319;SDS011;55168;51.120;17.024;2023-03-02T04:04:01;112.7;;;69.6;;
68319;SDS011;55168;51.120;17.024;2023-03-02T04:05:00;119.6;;;70.0;;
68319;SDS011;55168;51.120;17.024;2023-03-02T04:06:00;119.6;;;70.0;;
68319;SDS011;55168;51.120;17.024;2023-03-02T04:07:00;119.6;;;70.0;;
68319;SDS011;55168;51.120;17.024;2023-03-02T04:08:00;119.6;;;70.0;;
68319;SDS011;55168;51.120;17.024;2023-03-02T04:09:00;119.6;;;70.0;;
68319;SDS011;55168;51.120;17.024;2023-03-02T04:10:00;118.5;;;69.8;;
68319;SDS011;55168;51.120;17.024;2023-03-02T04:11:00;118.5;;;69.8;;
68319;SDS011;55168;51.120;17.024;2023-03-02T04:12:00;118.5;;;69.8;;
68319;SDS011;55168;51.120;17.024;2023-03-02T04:13:00;118.5;;;69.8;;
68319;SDS011;55168;51.120;17.024;2023-03-02T04:14:00;118.5;;;69.8;;
68319;SDS011;55168;51.120;17.024;2023-03-02T04:15:01;118.6;;;69.8;;
68319;SDS011;55168;51.120;17.024;2023-03-02T04:16:00;118.6;;;69.8;;
68319;SDS011;55168;51.120;17.024;2023-03-02T04:17:00;118.6;;;69.8;;
68319;SDS011;55168;51.120;17.024;2023-03-02T04:18:00;118.6;;;69.8;;
68319;SDS011;55168;51.120;17.024;2023-03-02T04:19:00;118.6;;;69.8;;
68319;SDS011;55168;51.120;17.024;2023-03-02T04:20:00;123.3;;;75.1;;
68319;SDS011;55168;51.120;17.024;2023-03-02T04:21:00;123.3;;;75.1;;
68319;SDS011;55168;51.120;17.024;2023-03-02T04:22:00;123.3;;;75.1;;
68319;SDS011;55168;51.120;17.024;2023-03-02T04:23:00;123.3;;;75.1;;
68319;SDS011;55168;51.120;17.024;2023-03-02T04:24:00;123.3;;;75.1;;
68319;SDS011;55168;51.120;17.024;2023-03-02T04:25:00;130.2;;;79.1;;
68319;SDS011;55168;51.120;17.024;2023-03-02T04:26:00;130.2;;;79.1;;
68319;SDS011;55168;51.120;17.024;2023-03-02T04:27:00;130.2;;;79.1;;
68319;SDS011;55168;51.120;17.024;2023-03-02T04:28:00;130.2;;;79.1;;
68319;SDS011;55168;51.120;17.024;2023-03-02T04:29:00;130.2;;;79.1;;
68319;SDS011;55168;51.120;17.024;2023-03-02T04:30:00;132.6;;;81.4;;
68319;SDS011;55168;51.120;17.024;2023-03-02T04:31:00;132.6;;;81.4;;
68319;SDS011;55168;51.120;17.024;2023-03-02T04:32:00;132.6;;;81.4;;
68319;SDS011;55168;51.120;17.024;2023-03-02T04:33:00;132.6;;;81.4;;
68319;SDS011;55168;51.120;17.024;2023-03-02T04:34:00;132.6;;;81.4;;
68319;SDS011;55168;51.120;17.024;2023-03-02T04:35:00;133.1;;;80.8;;
68319;SDS011;55168;51.120;17.024;2023-03-02T04:36:00;133.1;;;80.8;;
68319;SDS011;55168;51.120;17.024;2023-03-02T04:37:01;133.1;;;80.8;;
68319;SDS011;55168;51.120;17.024;2023-03-02T04:38:00;133.1;;;80.8;;
68319;SDS011;55168;51.120;17.024;2023-03-02T04:39:00;133.1;;;80.8;;
68319;SDS011;55168;51.120;17.024;2023-03-02T04:40:00;138.3;;;85.8;;
68319;SDS011;55168;51.120;17.024;2023-03-02T04:41:00;138.3;;;85.8;;
68319;SDS011;55168;51.120;17.024;2023-03-02T04:42:00;138.3;;;85.8;;
68319;SDS011;55168;51.120;17.024;2023-03-02T04:43:00;138.3;;;85.8;;
68319;SDS011;55168;51.120;17.024;2023-03-02T04:44:00;138.3;;;85.8;;
68319;SDS011;55168;51.120;17.024;2023-03-02T04:45:00;133.7;;;81.5;;
68319;SDS011;55168;51.120;17.024;2023-03-02T04:46:00;133.7;;;81.5;;
68319;SDS011;55168;51.120;17.024;2023-03-02T04:47:00;133.7;;;81.5;;
68319;SDS011;55168;51.120;17.024;2023-03-02T04:48:00;133.7;;;81.5;;
68319;SDS011;55168;51.120;17.024;2023-03-02T04:49:00;133.7;;;81.5;;
68319;SDS011;55168;51.120;17.024;2023-03-02T04:50:00;133.2;;;80.9;;
68319;SDS011;55168;51.120;17.024;2023-03-02T04:51:00;133.2;;;80.9;;
68319;SDS011;55168;51.120;17.024;2023-03-02T04:52:00;133.2;;;80.9;;
68319;SDS011;55168;51.120;17.024;2023-03-02T04:53:00;133.2;;;80.9;;
68319;SDS011;55168;51.120;17.024;2023-03-02T04:54:03;133.2;;;80.9;;
68319;SDS011;55168;51.120;17.024;2023-03-02T04:55:00;129.9;;;79.1;;
68319;SDS011;55168;51.120;17.024;2023-03-02T04:56:00;129.9;;;79.1;;
68319;SDS011;55168;51.120;17.024;2023-03-02T04:57:00;129.9;;;79.1;;
68319;SDS011;55168;51.120;17.024;2023-03-02T04:58:00;129.9;;;79.1;;
68319;SDS011;55168;51.120;17.024;2023-03-02T04:59:00;129.9;;;79.1;;
68319;SDS011;55168;51.120;17.024;2023-03-02T05:00:00;131.5;;;81.9;;
68319;SDS011;55168;51.120;17.024;2023-03-02T05:01:00;131.5;;;81.9;;
68319;SDS011;55168;51.120;17.024;2023-03-02T05:02:00;131.5;;;81.9;;
68319;SDS011;55168;51.120;17.024;2023-03-02T05:03:01;131.5;;;81.9;;
68319;SDS011;55168;51.120;17.024;2023-03-02T05:04:00;131.5;;;81.9;;
68319;SDS011;55168;51.120;17.024;2023-03-02T05:05:00;136.2;;;80.3;;
68319;SDS011;55168;51.120;17.024;2023-03-02T05:06:00;136.2;;;80.3;;
68319;SDS011;55168;51.120;17.024;2023-03-02T05:07:00;136.2;;;80.3;;
68319;SDS011;55168;51.120;17.024;2023-03-02T05:08:00;136.2;;;80.3;;
68319;SDS011;55168;51.120;17.024;2023-03-02T05:09:00;136.2;;;80.3;;
68319;SDS011;55168;51.120;17.024;2023-03-02T05:10:00;137.8;;;83.4;;
68319;SDS011;55168;51.120;17.024;2023-03-02T05:11:00;137.8;;;83.4;;
68319;SDS011;55168;51.120;17.024;2023-03-02T05:12:00;137.8;;;83.4;;
68319;SDS011;55168;51.120;17.024;2023-03-02T05:13:00;137.8;;;83.4;;
68319;SDS011;55168;51.120;17.024;2023-03-02T05:14:02;137.8;;;83.4;;
68319;SDS011;55168;51.120;17.024;2023-03-02T05:15:00;147.8;;;89.5;;
68319;SDS011;55168;51.120;17.024;2023-03-02T05:16:00;147.8;;;89.5;;
68319;SDS011;55168;51.120;17.024;2023-03-02T05:17:00;147.8;;;89.5;;
68319;SDS011;55168;51.120;17.024;2023-03-02T05:18:01;147.8;;;89.5;;
68319;SDS011;55168;51.120;17.024;2023-03-02T05:19:01;147.8;;;89.5;;
68319;SDS011;55168;51.120;17.024;2023-03-02T05:20:00;142.3;;;84.8;;
68319;SDS011;55168;51.120;17.024;2023-03-02T05:21:00;142.3;;;84.8;;
68319;SDS011;55168;51.120;17.024;2023-03-02T05:22:00;142.3;;;84.8;;
68319;SDS011;55168;51.120;17.024;2023-03-02T05:23:03;142.3;;;84.8;;
68319;SDS011;55168;51.120;17.024;2023-03-02T05:24:00;142.3;;;84.8;;
68319;SDS011;55168;51.120;17.024;2023-03-02T05:25:00;131.0;;;80.4;;
68319;SDS011;55168;51.120;17.024;2023-03-02T05:26:00;131.0;;;80.4;;
68319;SDS011;55168;51.120;17.024;2023-03-02T05:27:00;131.0;;;80.4;;
68319;SDS011;55168;51.120;17.024;2023-03-02T05:28:00;131.0;;;80.4;;
68319;SDS011;55168;51.120;17.024;2023-03-02T05:29:00;131.0;;;80.4;;
68319;SDS011;55168;51.120;17.024;2023-03-02T05:30:00;134.0;;;81.6;;
68319;SDS011;55168;51.120;17.024;2023-03-02T05:31:00;134.0;;;81.6;;
68319;SDS011;55168;51.120;17.024;2023-03-02T05:32:00;134.0;;;81.6;;
68319;SDS011;55168;51.120;17.024;2023-03-02T05:33:00;134.0;;;81.6;;
68319;SDS011;55168;51.120;17.024;2023-03-02T05:34:01;134.0;;;81.6;;
68319;SDS011;55168;51.120;17.024;2023-03-02T05:35:00;138.6;;;85.0;;
68319;SDS011;55168;51.120;17.024;2023-03-02T05:36:00;138.6;;;85.0;;
68319;SDS011;55168;51.120;17.024;2023-03-02T05:37:00;138.6;;;85.0;;
68319;SDS011;55168;51.120;17.024;2023-03-02T05:38:00;138.6;;;85.0;;
68319;SDS011;55168;51.120;17.024;2023-03-02T05:39:00;138.6;;;85.0;;
68319;SDS011;55168;51.120;17.024;2023-03-02T05:40:00;134.8;;;82.0;;
68319;SDS011;55168;51.120;17.024;2023-03-02T05:41:00;134.8;;;82.0;;
68319;SDS011;55168;51.120;17.024;2023-03-02T05:42:00;134.8;;;82.0;;
68319;SDS011;55168;51.120;17.024;2023-03-02T05:43:00;134.8;;;82.0;;
68319;SDS011;55168;51.120;17.024;2023-03-02T05:44:00;134.8;;;82.0;;
68319;SDS011;55168;51.120;17.024;2023-03-02T05:45:01;128.0;;;79.7;;
68319;SDS011;55168;51.120;17.024;2023-03-02T05:46:00;128.0;;;79.7;;
68319;SDS011;55168;51.120;17.024;2023-03-02T05:47:00;128.0;;;79.7;;
68319;SDS011;55168;51.120;17.024;2023-03-02T05:48:01;128.0;;;79.7;;
68319;SDS011;55168;51.120;17.024;2023-03-02T05:49:00;128.0;;;79.7;;
68319;SDS011;55168;51.120;17.024;2023-03-02T05:50:00;124.9;;;76.6;;
68319;SDS011;55168;51.120;17.024;2023-03-02T05:51:00;124.9;;;76.6;;
68319;SDS011;55168;51.120;17.024;2023-03-02T05:52:00;124.9;;;76.6;;
68319;SDS011;55168;51.120;17.024;2023-03-02T05:53:00;124.9;;;76.6;;
68319;SDS011;55168;51.120;17.024;2023-03-02T05:54:01;124.9;;;76.6;;
68319;SDS011;55168;51.120;17.024;2023-03-02T05:55:00;128.0;;;77.5;;
68319;SDS011;55168;51.120;17.024;2023-03-02T05:56:00;128.0;;;77.5;;
68319;SDS011;55168;51.120;17.024;2023-03-02T05:57:00;128.0;;;77.5;;